sensor_id;sensor_type;location;lat;lon;timestamp;temperature;humidity
27266;DHT22;14766;51.380;13.762;2022-12-07T00:01:35;6.40;78.20
27266;DHT22;14766;51.380;13.762;2022-12-07T00:04:04;6.40;78.90
27266;DHT22;14766;51.380;13.762;2022-12-07T00:06:37;6.40;78.00
27266;DHT22;14766;51.380;13.762;2022-12-07T00:09:06;6.40;77.80
27266;DHT22;14766;51.380;13.762;2022-12-07T00:11:33;6.40;77.80
27266;DHT22;14766;51.380;13.762;2022-12-07T00:14:03;6.40;77.70
27266;DHT22;14766;51.380;13.762;2022-12-07T00:16:33;6.50;77.60
27266;DHT22;14766;51.380;13.762;2022-12-07T00:19:01;6.50;77.50
27266;DHT22;14766;51.380;13.762;2022-12-07T00:21:29;6.40;77.30
27266;DHT22;14766;51.380;13.762;2022-12-07T00:23:57;6.50;77.20
27266;DHT22;14766;51.380;13.762;2022-12-07T00:26:44;6.40;76.90
27266;DHT22;14766;51.380;13.762;2022-12-07T00:29:16;6.50;76.90
27266;DHT22;14766;51.380;13.762;2022-12-07T00:31:44;6.40;76.80
27266;DHT22;14766;51.380;13.762;2022-12-07T00:34:15;6.40;76.80
27266;DHT22;14766;51.380;13.762;2022-12-07T00:36:43;6.40;76.70
27266;DHT22;14766;51.380;13.762;2022-12-07T00:39:10;6.40;76.70
27266;DHT22;14766;51.380;13.762;2022-12-07T00:41:37;6.40;76.60
27266;DHT22;14766;51.380;13.762;2022-12-07T00:44:04;6.40;76.60
27266;DHT22;14766;51.380;13.762;2022-12-07T00:46:31;6.40;76.50
27266;DHT22;14766;51.380;13.762;2022-12-07T00:48:59;6.40;76.40
27266;DHT22;14766;51.380;13.762;2022-12-07T00:51:26;6.40;76.40
27266;DHT22;14766;51.380;13.762;2022-12-07T00:53:53;6.40;76.30
27266;DHT22;14766;51.380;13.762;2022-12-07T00:56:26;6.30;76.10
27266;DHT22;14766;51.380;13.762;2022-12-07T00:58:58;6.40;76.20
27266;DHT22;14766;51.380;13.762;2022-12-07T01:01:29;6.30;76.30
27266;DHT22;14766;51.380;13.762;2022-12-07T01:03:56;6.30;76.30
27266;DHT22;14766;51.380;13.762;2022-12-07T01:06:25;6.30;76.10
27266;DHT22;14766;51.380;13.762;2022-12-07T01:08:53;6.30;76.20
27266;DHT22;14766;51.380;13.762;2022-12-07T01:11:23;6.30;76.20
27266;DHT22;14766;51.380;13.762;2022-12-07T01:13:52;6.30;76.20
27266;DHT22;14766;51.380;13.762;2022-12-07T01:16:21;6.30;76.10
27266;DHT22;14766;51.380;13.762;2022-12-07T01:18:50;6.30;76.20
27266;DHT22;14766;51.380;13.762;2022-12-07T01:21:22;6.30;76.10
27266;DHT22;14766;51.380;13.762;2022-12-07T01:23:50;6.20;76.00
27266;DHT22;14766;51.380;13.762;2022-12-07T01:26:19;6.20;76.00
27266;DHT22;14766;51.380;13.762;2022-12-07T01:28:47;6.20;76.00
27266;DHT22;14766;51.380;13.762;2022-12-07T01:31:17;6.20;76.10
27266;DHT22;14766;51.380;13.762;2022-12-07T01:33:47;6.20;76.10
27266;DHT22;14766;51.380;13.762;2022-12-07T01:36:17;6.20;76.00
27266;DHT22;14766;51.380;13.762;2022-12-07T01:38:46;6.20;76.00
27266;DHT22;14766;51.380;13.762;2022-12-07T01:41:13;6.20;76.00
27266;DHT22;14766;51.380;13.762;2022-12-07T01:44:08;6.30;76.00
27266;DHT22;14766;51.380;13.762;2022-12-07T01:46:36;6.30;75.80
27266;DHT22;14766;51.380;13.762;2022-12-07T01:49:10;6.30;75.90
27266;DHT22;14766;51.380;13.762;2022-12-07T01:51:40;6.30;75.90
27266;DHT22;14766;51.380;13.762;2022-12-07T01:54:10;6.30;76.00
27266;DHT22;14766;51.380;13.762;2022-12-07T01:56:40;6.30;75.90
27266;DHT22;14766;51.380;13.762;2022-12-07T01:59:08;6.30;75.90
27266;DHT22;14766;51.380;13.762;2022-12-07T02:01:35;6.30;75.80
27266;DHT22;14766;51.380;13.762;2022-12-07T02:04:03;6.30;75.80
27266;DHT22;14766;51.380;13.762;2022-12-07T02:06:30;6.30;75.70
27266;DHT22;14766;51.380;13.762;2022-12-07T02:08:58;6.30;75.70
27266;DHT22;14766;51.380;13.762;2022-12-07T02:11:25;6.30;75.70
27266;DHT22;14766;51.380;13.762;2022-12-07T02:13:53;6.30;75.70
27266;DHT22;14766;51.380;13.762;2022-12-07T02:27:52;6.30;75.70
27266;DHT22;14766;51.380;13.762;2022-12-07T02:30:28;6.30;75.70
27266;DHT22;14766;51.380;13.762;2022-12-07T02:33:01;6.30;75.70
27266;DHT22;14766;51.380;13.762;2022-12-07T02:36:00;6.30;76.20
27266;DHT22;14766;51.380;13.762;2022-12-07T02:38:40;6.30;75.60
27266;DHT22;14766;51.380;13.762;2022-12-07T02:41:23;6.30;75.60
27266;DHT22;14766;51.380;13.762;2022-12-07T02:44:00;6.30;75.60
27266;DHT22;14766;51.380;13.762;2022-12-07T02:46:38;6.30;75.60
27266;DHT22;14766;51.380;13.762;2022-12-07T02:49:08;6.30;75.60
27266;DHT22;14766;51.380;13.762;2022-12-07T02:51:43;6.30;75.60
27266;DHT22;14766;51.380;13.762;2022-12-07T02:54:21;6.20;75.40
27266;DHT22;14766;51.380;13.762;2022-12-07T02:56:49;6.20;75.40
27266;DHT22;14766;51.380;13.762;2022-12-07T03:05:11;6.20;75.50
27266;DHT22;14766;51.380;13.762;2022-12-07T03:11:03;6.20;75.60
27266;DHT22;14766;51.380;13.762;2022-12-07T03:13:45;6.20;75.70
27266;DHT22;14766;51.380;13.762;2022-12-07T03:19:10;6.20;76.00
27266;DHT22;14766;51.380;13.762;2022-12-07T03:21:39;6.10;75.70
27266;DHT22;14766;51.380;13.762;2022-12-07T03:24:12;6.10;75.90
27266;DHT22;14766;51.380;13.762;2022-12-07T03:26:50;6.10;75.70
27266;DHT22;14766;51.380;13.762;2022-12-07T03:29:28;6.00;75.70
27266;DHT22;14766;51.380;13.762;2022-12-07T03:32:12;6.10;75.80
27266;DHT22;14766;51.380;13.762;2022-12-07T03:34:53;6.00;75.70
27266;DHT22;14766;51.380;13.762;2022-12-07T03:37:34;6.00;75.60
27266;DHT22;14766;51.380;13.762;2022-12-07T03:40:05;6.00;75.60
27266;DHT22;14766;51.380;13.762;2022-12-07T03:42:34;5.90;75.50
27266;DHT22;14766;51.380;13.762;2022-12-07T03:45:02;5.90;75.50
27266;DHT22;14766;51.380;13.762;2022-12-07T03:50:16;5.90;75.40
27266;DHT22;14766;51.380;13.762;2022-12-07T03:52:59;5.90;75.50
27266;DHT22;14766;51.380;13.762;2022-12-07T03:55:32;5.80;75.50
27266;DHT22;14766;51.380;13.762;2022-12-07T03:58:03;5.80;75.50
27266;DHT22;14766;51.380;13.762;2022-12-07T04:00:32;5.80;75.60
27266;DHT22;14766;51.380;13.762;2022-12-07T04:02:59;5.70;75.60
27266;DHT22;14766;51.380;13.762;2022-12-07T04:05:26;5.70;75.60
27266;DHT22;14766;51.380;13.762;2022-12-07T04:07:54;5.70;75.60
27266;DHT22;14766;51.380;13.762;2022-12-07T04:10:21;5.70;75.60
27266;DHT22;14766;51.380;13.762;2022-12-07T04:12:48;5.70;75.40
27266;DHT22;14766;51.380;13.762;2022-12-07T04:15:15;5.60;75.20
27266;DHT22;14766;51.380;13.762;2022-12-07T04:17:42;5.60;75.20
27266;DHT22;14766;51.380;13.762;2022-12-07T04:20:10;5.60;75.30
27266;DHT22;14766;51.380;13.762;2022-12-07T04:22:37;5.50;75.20
27266;DHT22;14766;51.380;13.762;2022-12-07T04:25:05;5.50;75.20
27266;DHT22;14766;51.380;13.762;2022-12-07T04:27:32;5.50;75.10
27266;DHT22;14766;51.380;13.762;2022-12-07T04:29:59;5.50;75.10
27266;DHT22;14766;51.380;13.762;2022-12-07T04:32:27;5.40;76.00
27266;DHT22;14766;51.380;13.762;2022-12-07T04:34:56;5.40;75.30
27266;DHT22;14766;51.380;13.762;2022-12-07T04:37:24;5.40;75.20
27266;DHT22;14766;51.380;13.762;2022-12-07T04:39:51;5.40;75.10
27266;DHT22;14766;51.380;13.762;2022-12-07T04:42:18;5.40;75.00
27266;DHT22;14766;51.380;13.762;2022-12-07T04:44:45;5.40;75.00
27266;DHT22;14766;51.380;13.762;2022-12-07T04:47:12;5.40;74.80
27266;DHT22;14766;51.380;13.762;2022-12-07T04:49:39;5.40;74.80
27266;DHT22;14766;51.380;13.762;2022-12-07T04:52:07;5.40;74.90
27266;DHT22;14766;51.380;13.762;2022-12-07T04:54:34;5.40;74.80
27266;DHT22;14766;51.380;13.762;2022-12-07T04:57:01;5.40;74.80
27266;DHT22;14766;51.380;13.762;2022-12-07T04:59:28;5.40;74.80
27266;DHT22;14766;51.380;13.762;2022-12-07T05:01:56;5.40;74.80
27266;DHT22;14766;51.380;13.762;2022-12-07T05:04:23;5.40;74.50
27266;DHT22;14766;51.380;13.762;2022-12-07T05:06:50;5.40;74.50
27266;DHT22;14766;51.380;13.762;2022-12-07T05:09:18;5.40;74.60
27266;DHT22;14766;51.380;13.762;2022-12-07T05:11:45;5.50;74.70
27266;DHT22;14766;51.380;13.762;2022-12-07T05:14:16;5.50;74.60
27266;DHT22;14766;51.380;13.762;2022-12-07T05:16:46;5.50;74.40
27266;DHT22;14766;51.380;13.762;2022-12-07T05:19:14;5.50;74.10
27266;DHT22;14766;51.380;13.762;2022-12-07T05:21:41;5.50;74.00
27266;DHT22;14766;51.380;13.762;2022-12-07T05:24:10;5.50;73.80
27266;DHT22;14766;51.380;13.762;2022-12-07T05:26:38;5.50;73.90
27266;DHT22;14766;51.380;13.762;2022-12-07T05:29:05;5.50;74.00
27266;DHT22;14766;51.380;13.762;2022-12-07T05:31:32;5.50;74.00
27266;DHT22;14766;51.380;13.762;2022-12-07T05:33:59;5.50;74.00
27266;DHT22;14766;51.380;13.762;2022-12-07T05:36:27;5.50;73.80
27266;DHT22;14766;51.380;13.762;2022-12-07T05:38:55;5.50;73.90
27266;DHT22;14766;51.380;13.762;2022-12-07T05:41:22;5.50;74.00
27266;DHT22;14766;51.380;13.762;2022-12-07T05:44:08;5.50;73.90
27266;DHT22;14766;51.380;13.762;2022-12-07T05:46:35;5.50;73.70
27266;DHT22;14766;51.380;13.762;2022-12-07T05:49:03;5.50;73.90
27266;DHT22;14766;51.380;13.762;2022-12-07T05:51:30;5.50;74.00
27266;DHT22;14766;51.380;13.762;2022-12-07T05:53:57;5.40;74.00
27266;DHT22;14766;51.380;13.762;2022-12-07T05:56:26;5.40;74.00
27266;DHT22;14766;51.380;13.762;2022-12-07T05:58:54;5.50;74.00
27266;DHT22;14766;51.380;13.762;2022-12-07T06:01:39;5.40;74.00
27266;DHT22;14766;51.380;13.762;2022-12-07T06:04:07;5.50;74.00
27266;DHT22;14766;51.380;13.762;2022-12-07T06:06:34;5.50;73.80
27266;DHT22;14766;51.380;13.762;2022-12-07T06:09:02;5.40;73.90
27266;DHT22;14766;51.380;13.762;2022-12-07T06:11:30;5.40;73.90
27266;DHT22;14766;51.380;13.762;2022-12-07T06:14:16;5.50;73.90
27266;DHT22;14766;51.380;13.762;2022-12-07T06:16:43;5.50;73.80
27266;DHT22;14766;51.380;13.762;2022-12-07T06:19:10;5.40;73.80
27266;DHT22;14766;51.380;13.762;2022-12-07T06:21:37;5.40;74.00
27266;DHT22;14766;51.380;13.762;2022-12-07T06:24:05;5.40;73.90
27266;DHT22;14766;51.380;13.762;2022-12-07T06:26:32;5.50;74.10
27266;DHT22;14766;51.380;13.762;2022-12-07T06:28:59;5.50;74.20
27266;DHT22;14766;51.380;13.762;2022-12-07T06:31:26;5.50;74.10
27266;DHT22;14766;51.380;13.762;2022-12-07T06:34:01;5.50;74.10
27266;DHT22;14766;51.380;13.762;2022-12-07T06:36:29;5.50;74.20
27266;DHT22;14766;51.380;13.762;2022-12-07T06:38:56;5.50;74.30
27266;DHT22;14766;51.380;13.762;2022-12-07T06:41:25;5.50;74.40
27266;DHT22;14766;51.380;13.762;2022-12-07T06:43:52;5.50;74.70
27266;DHT22;14766;51.380;13.762;2022-12-07T06:46:23;5.50;74.80
27266;DHT22;14766;51.380;13.762;2022-12-07T06:48:51;5.50;74.90
27266;DHT22;14766;51.380;13.762;2022-12-07T06:51:18;5.50;75.00
27266;DHT22;14766;51.380;13.762;2022-12-07T06:53:47;5.50;75.10
27266;DHT22;14766;51.380;13.762;2022-12-07T06:56:15;5.50;75.20
27266;DHT22;14766;51.380;13.762;2022-12-07T06:58:43;5.40;75.50
27266;DHT22;14766;51.380;13.762;2022-12-07T07:01:12;5.40;75.70
27266;DHT22;14766;51.380;13.762;2022-12-07T07:03:39;5.40;75.80
27266;DHT22;14766;51.380;13.762;2022-12-07T07:06:07;5.40;76.00
27266;DHT22;14766;51.380;13.762;2022-12-07T07:08:36;5.40;76.10
27266;DHT22;14766;51.380;13.762;2022-12-07T07:11:04;5.40;76.20
27266;DHT22;14766;51.380;13.762;2022-12-07T07:13:31;5.40;76.30
27266;DHT22;14766;51.380;13.762;2022-12-07T07:15:59;5.40;76.50
27266;DHT22;14766;51.380;13.762;2022-12-07T07:18:27;5.40;76.70
27266;DHT22;14766;51.380;13.762;2022-12-07T07:20:55;5.40;76.90
27266;DHT22;14766;51.380;13.762;2022-12-07T07:23:22;5.40;76.90
27266;DHT22;14766;51.380;13.762;2022-12-07T07:25:50;5.40;77.60
27266;DHT22;14766;51.380;13.762;2022-12-07T07:28:17;5.40;77.20
27266;DHT22;14766;51.380;13.762;2022-12-07T07:30:45;5.40;77.40
27266;DHT22;14766;51.380;13.762;2022-12-07T07:33:12;5.40;77.40
27266;DHT22;14766;51.380;13.762;2022-12-07T07:35:40;5.40;77.50
27266;DHT22;14766;51.380;13.762;2022-12-07T07:38:07;5.40;77.70
27266;DHT22;14766;51.380;13.762;2022-12-07T07:40:35;5.40;77.90
27266;DHT22;14766;51.380;13.762;2022-12-07T07:43:03;5.30;77.90
27266;DHT22;14766;51.380;13.762;2022-12-07T07:49:36;5.30;78.20
27266;DHT22;14766;51.380;13.762;2022-12-07T07:52:08;5.30;78.40
27266;DHT22;14766;51.380;13.762;2022-12-07T07:54:36;5.30;78.50
27266;DHT22;14766;51.380;13.762;2022-12-07T07:57:03;5.30;78.70
27266;DHT22;14766;51.380;13.762;2022-12-07T07:59:30;5.40;78.90
27266;DHT22;14766;51.380;13.762;2022-12-07T08:01:57;5.40;79.00
27266;DHT22;14766;51.380;13.762;2022-12-07T08:04:24;5.40;79.10
27266;DHT22;14766;51.380;13.762;2022-12-07T08:06:52;5.40;79.30
27266;DHT22;14766;51.380;13.762;2022-12-07T08:09:19;5.50;79.40
27266;DHT22;14766;51.380;13.762;2022-12-07T08:11:46;5.50;79.30
27266;DHT22;14766;51.380;13.762;2022-12-07T08:14:13;5.50;79.20
27266;DHT22;14766;51.380;13.762;2022-12-07T08:16:40;5.50;79.30
27266;DHT22;14766;51.380;13.762;2022-12-07T08:19:07;5.50;79.30
27266;DHT22;14766;51.380;13.762;2022-12-07T08:21:34;5.60;79.30
27266;DHT22;14766;51.380;13.762;2022-12-07T08:24:01;5.50;79.20
27266;DHT22;14766;51.380;13.762;2022-12-07T08:26:28;5.60;79.30
27266;DHT22;14766;51.380;13.762;2022-12-07T08:28:56;5.60;80.20
27266;DHT22;14766;51.380;13.762;2022-12-07T08:31:23;5.60;79.30
27266;DHT22;14766;51.380;13.762;2022-12-07T08:33:51;5.70;79.20
27266;DHT22;14766;51.380;13.762;2022-12-07T08:36:19;5.70;79.00
27266;DHT22;14766;51.380;13.762;2022-12-07T08:38:46;5.70;78.90
27266;DHT22;14766;51.380;13.762;2022-12-07T08:41:33;5.70;78.90
27266;DHT22;14766;51.380;13.762;2022-12-07T08:44:01;5.80;79.00
27266;DHT22;14766;51.380;13.762;2022-12-07T08:49:18;5.90;78.90
27266;DHT22;14766;51.380;13.762;2022-12-07T08:51:46;5.90;78.90
27266;DHT22;14766;51.380;13.762;2022-12-07T08:54:16;6.00;79.20
27266;DHT22;14766;51.380;13.762;2022-12-07T08:56:44;6.00;79.20
27266;DHT22;14766;51.380;13.762;2022-12-07T08:59:14;6.10;79.20
27266;DHT22;14766;51.380;13.762;2022-12-07T09:01:42;6.20;78.70
27266;DHT22;14766;51.380;13.762;2022-12-07T09:04:10;6.20;78.60
27266;DHT22;14766;51.380;13.762;2022-12-07T09:06:38;6.30;78.50
27266;DHT22;14766;51.380;13.762;2022-12-07T09:09:06;6.40;78.60
27266;DHT22;14766;51.380;13.762;2022-12-07T09:11:33;6.40;78.40
27266;DHT22;14766;51.380;13.762;2022-12-07T09:14:01;6.50;78.80
27266;DHT22;14766;51.380;13.762;2022-12-07T09:16:28;6.60;78.10
27266;DHT22;14766;51.380;13.762;2022-12-07T09:18:56;6.80;77.60
27266;DHT22;14766;51.380;13.762;2022-12-07T09:21:25;6.90;76.50
27266;DHT22;14766;51.380;13.762;2022-12-07T09:23:54;7.00;75.90
27266;DHT22;14766;51.380;13.762;2022-12-07T09:26:21;7.00;75.60
27266;DHT22;14766;51.380;13.762;2022-12-07T09:28:48;7.10;75.90
27266;DHT22;14766;51.380;13.762;2022-12-07T09:31:16;7.20;75.80
27266;DHT22;14766;51.380;13.762;2022-12-07T09:33:56;7.20;75.10
27266;DHT22;14766;51.380;13.762;2022-12-07T09:36:25;7.30;75.10
27266;DHT22;14766;51.380;13.762;2022-12-07T09:38:55;7.30;74.60
27266;DHT22;14766;51.380;13.762;2022-12-07T09:41:25;7.30;74.20
27266;DHT22;14766;51.380;13.762;2022-12-07T09:44:00;7.30;74.30
27266;DHT22;14766;51.380;13.762;2022-12-07T09:46:29;7.40;74.20
27266;DHT22;14766;51.380;13.762;2022-12-07T09:48:58;7.40;73.70
27266;DHT22;14766;51.380;13.762;2022-12-07T09:51:25;7.30;73.90
27266;DHT22;14766;51.380;13.762;2022-12-07T09:53:54;7.30;73.80
27266;DHT22;14766;51.380;13.762;2022-12-07T09:56:22;7.30;73.90
27266;DHT22;14766;51.380;13.762;2022-12-07T09:58:58;7.30;74.00
27266;DHT22;14766;51.380;13.762;2022-12-07T10:01:31;7.30;73.80
27266;DHT22;14766;51.380;13.762;2022-12-07T10:04:12;7.20;73.90
27266;DHT22;14766;51.380;13.762;2022-12-07T10:06:41;7.20;73.90
27266;DHT22;14766;51.380;13.762;2022-12-07T10:09:13;7.20;74.00
27266;DHT22;14766;51.380;13.762;2022-12-07T10:12:08;7.20;74.30
27266;DHT22;14766;51.380;13.762;2022-12-07T10:14:38;7.20;74.20
27266;DHT22;14766;51.380;13.762;2022-12-07T10:17:38;7.20;74.10
27266;DHT22;14766;51.380;13.762;2022-12-07T10:20:16;7.20;74.40
27266;DHT22;14766;51.380;13.762;2022-12-07T10:25:30;7.20;74.50
27266;DHT22;14766;51.380;13.762;2022-12-07T10:30:29;7.30;74.60
27266;DHT22;14766;51.380;13.762;2022-12-07T10:32:57;7.20;73.70
27266;DHT22;14766;51.380;13.762;2022-12-07T10:35:29;7.30;73.50
27266;DHT22;14766;51.380;13.762;2022-12-07T10:37:58;7.30;73.40
27266;DHT22;14766;51.380;13.762;2022-12-07T10:40:35;7.30;73.20
27266;DHT22;14766;51.380;13.762;2022-12-07T10:46:09;7.30;73.50
27266;DHT22;14766;51.380;13.762;2022-12-07T10:48:59;7.30;73.60
27266;DHT22;14766;51.380;13.762;2022-12-07T10:51:45;7.30;73.80
27266;DHT22;14766;51.380;13.762;2022-12-07T10:54:22;7.40;74.00
27266;DHT22;14766;51.380;13.762;2022-12-07T11:00:08;7.40;74.10
27266;DHT22;14766;51.380;13.762;2022-12-07T11:13:53;7.40;73.50
27266;DHT22;14766;51.380;13.762;2022-12-07T11:16:34;7.40;72.30
27266;DHT22;14766;51.380;13.762;2022-12-07T11:19:20;7.30;71.10
27266;DHT22;14766;51.380;13.762;2022-12-07T11:35:38;7.10;72.60
27266;DHT22;14766;51.380;13.762;2022-12-07T11:38:45;7.00;72.60
27266;DHT22;14766;51.380;13.762;2022-12-07T11:41:10;7.00;72.90
27266;DHT22;14766;51.380;13.762;2022-12-07T11:49:27;7.00;73.70
27266;DHT22;14766;51.380;13.762;2022-12-07T11:52:02;7.00;73.80
27266;DHT22;14766;51.380;13.762;2022-12-07T11:54:36;7.00;73.90
27266;DHT22;14766;51.380;13.762;2022-12-07T11:57:13;7.00;73.60
27266;DHT22;14766;51.380;13.762;2022-12-07T11:59:50;7.00;73.60
27266;DHT22;14766;51.380;13.762;2022-12-07T12:02:24;7.00;73.60
27266;DHT22;14766;51.380;13.762;2022-12-07T12:07:33;6.90;73.70
27266;DHT22;14766;51.380;13.762;2022-12-07T12:13:59;6.90;74.00
27266;DHT22;14766;51.380;13.762;2022-12-07T12:20:00;6.90;73.50
27266;DHT22;14766;51.380;13.762;2022-12-07T12:22:44;6.90;73.20
27266;DHT22;14766;51.380;13.762;2022-12-07T12:25:42;6.90;73.10
27266;DHT22;14766;51.380;13.762;2022-12-07T12:28:31;6.90;73.10
27266;DHT22;14766;51.380;13.762;2022-12-07T12:31:31;6.90;73.10
27266;DHT22;14766;51.380;13.762;2022-12-07T12:34:03;6.90;73.10
27266;DHT22;14766;51.380;13.762;2022-12-07T12:39:16;6.90;73.40
27266;DHT22;14766;51.380;13.762;2022-12-07T12:46:58;6.90;73.70
27266;DHT22;14766;51.380;13.762;2022-12-07T12:51:58;6.90;73.40
27266;DHT22;14766;51.380;13.762;2022-12-07T12:59:26;6.90;73.90
27266;DHT22;14766;51.380;13.762;2022-12-07T13:04:48;6.90;73.90
27266;DHT22;14766;51.380;13.762;2022-12-07T13:12:58;7.00;74.30
27266;DHT22;14766;51.380;13.762;2022-12-07T13:28:50;7.20;74.40
27266;DHT22;14766;51.380;13.762;2022-12-07T13:34:26;7.20;74.40
27266;DHT22;14766;51.380;13.762;2022-12-07T13:36:52;7.30;74.50
27266;DHT22;14766;51.380;13.762;2022-12-07T13:39:21;7.30;74.50
27266;DHT22;14766;51.380;13.762;2022-12-07T13:41:52;7.30;74.50
27266;DHT22;14766;51.380;13.762;2022-12-07T13:44:20;7.30;74.70
27266;DHT22;14766;51.380;13.762;2022-12-07T13:47:52;7.20;74.60
27266;DHT22;14766;51.380;13.762;2022-12-07T13:49:57;7.20;74.50
27266;DHT22;14766;51.380;13.762;2022-12-07T13:52:27;7.20;74.50
27266;DHT22;14766;51.380;13.762;2022-12-07T13:57:34;7.20;74.40
27266;DHT22;14766;51.380;13.762;2022-12-07T14:00:13;7.20;74.50
27266;DHT22;14766;51.380;13.762;2022-12-07T14:05:41;7.20;74.60
27266;DHT22;14766;51.380;13.762;2022-12-07T14:13:28;7.10;74.70
27266;DHT22;14766;51.380;13.762;2022-12-07T14:15:58;7.10;74.70
27266;DHT22;14766;51.380;13.762;2022-12-07T14:18:36;7.10;74.80
27266;DHT22;14766;51.380;13.762;2022-12-07T14:21:32;7.10;74.90
27266;DHT22;14766;51.380;13.762;2022-12-07T14:24:09;7.10;75.00
27266;DHT22;14766;51.380;13.762;2022-12-07T14:26:38;7.10;75.10
27266;DHT22;14766;51.380;13.762;2022-12-07T14:29:42;7.10;75.10
27266;DHT22;14766;51.380;13.762;2022-12-07T14:32:22;7.10;75.20
27266;DHT22;14766;51.380;13.762;2022-12-07T14:35:09;7.10;75.10
27266;DHT22;14766;51.380;13.762;2022-12-07T14:37:38;7.10;75.10
27266;DHT22;14766;51.380;13.762;2022-12-07T14:40:06;7.10;75.20
27266;DHT22;14766;51.380;13.762;2022-12-07T14:42:34;7.10;75.40
27266;DHT22;14766;51.380;13.762;2022-12-07T14:45:02;7.10;75.40
27266;DHT22;14766;51.380;13.762;2022-12-07T14:47:30;7.10;75.50
27266;DHT22;14766;51.380;13.762;2022-12-07T14:50:19;7.10;75.60
27266;DHT22;14766;51.380;13.762;2022-12-07T14:53:00;7.10;75.70
27266;DHT22;14766;51.380;13.762;2022-12-07T14:55:49;7.00;75.90
27266;DHT22;14766;51.380;13.762;2022-12-07T14:58:17;7.00;76.00
27266;DHT22;14766;51.380;13.762;2022-12-07T15:00:45;7.00;75.90
27266;DHT22;14766;51.380;13.762;2022-12-07T15:03:12;7.00;75.90
27266;DHT22;14766;51.380;13.762;2022-12-07T15:05:40;7.00;76.00
27266;DHT22;14766;51.380;13.762;2022-12-07T15:08:12;7.00;75.80
27266;DHT22;14766;51.380;13.762;2022-12-07T15:10:40;6.90;75.60
27266;DHT22;14766;51.380;13.762;2022-12-07T15:13:08;6.90;75.50
27266;DHT22;14766;51.380;13.762;2022-12-07T15:15:55;6.90;75.40
27266;DHT22;14766;51.380;13.762;2022-12-07T15:18:23;6.90;75.30
27266;DHT22;14766;51.380;13.762;2022-12-07T15:20:50;6.90;75.30
27266;DHT22;14766;51.380;13.762;2022-12-07T15:23:18;6.80;76.10
27266;DHT22;14766;51.380;13.762;2022-12-07T15:25:46;6.80;75.20
27266;DHT22;14766;51.380;13.762;2022-12-07T15:28:15;6.80;75.30
27266;DHT22;14766;51.380;13.762;2022-12-07T15:30:43;6.80;75.30
27266;DHT22;14766;51.380;13.762;2022-12-07T15:33:11;6.80;75.40
27266;DHT22;14766;51.380;13.762;2022-12-07T15:35:44;6.80;75.40
27266;DHT22;14766;51.380;13.762;2022-12-07T15:38:12;6.80;75.40
27266;DHT22;14766;51.380;13.762;2022-12-07T15:40:40;6.70;75.30
27266;DHT22;14766;51.380;13.762;2022-12-07T15:43:10;6.70;75.40
27266;DHT22;14766;51.380;13.762;2022-12-07T15:45:58;6.70;75.30
27266;DHT22;14766;51.380;13.762;2022-12-07T15:48:26;6.70;75.30
27266;DHT22;14766;51.380;13.762;2022-12-07T15:51:05;6.70;75.20
27266;DHT22;14766;51.380;13.762;2022-12-07T15:53:33;6.70;75.10
27266;DHT22;14766;51.380;13.762;2022-12-07T15:56:00;6.70;75.10
27266;DHT22;14766;51.380;13.762;2022-12-07T15:58:27;6.70;75.10
27266;DHT22;14766;51.380;13.762;2022-12-07T16:00:54;6.60;75.00
27266;DHT22;14766;51.380;13.762;2022-12-07T16:03:21;6.60;75.10
27266;DHT22;14766;51.380;13.762;2022-12-07T16:05:49;6.60;75.10
27266;DHT22;14766;51.380;13.762;2022-12-07T16:08:16;6.60;75.20
27266;DHT22;14766;51.380;13.762;2022-12-07T16:10:45;6.50;75.20
27266;DHT22;14766;51.380;13.762;2022-12-07T16:13:13;6.50;75.30
27266;DHT22;14766;51.380;13.762;2022-12-07T16:15:43;6.50;75.20
27266;DHT22;14766;51.380;13.762;2022-12-07T16:18:11;6.50;75.10
27266;DHT22;14766;51.380;13.762;2022-12-07T16:20:39;6.50;75.00
27266;DHT22;14766;51.380;13.762;2022-12-07T16:23:06;6.50;75.00
27266;DHT22;14766;51.380;13.762;2022-12-07T16:25:34;6.50;75.00
27266;DHT22;14766;51.380;13.762;2022-12-07T16:28:02;6.60;75.20
27266;DHT22;14766;51.380;13.762;2022-12-07T16:30:29;6.50;75.10
27266;DHT22;14766;51.380;13.762;2022-12-07T16:32:56;6.50;75.30
27266;DHT22;14766;51.380;13.762;2022-12-07T16:35:28;6.50;75.40
27266;DHT22;14766;51.380;13.762;2022-12-07T16:37:56;6.50;75.30
27266;DHT22;14766;51.380;13.762;2022-12-07T16:40:23;6.50;75.00
27266;DHT22;14766;51.380;13.762;2022-12-07T16:42:50;6.50;74.90
27266;DHT22;14766;51.380;13.762;2022-12-07T16:45:17;6.50;74.80
27266;DHT22;14766;51.380;13.762;2022-12-07T16:47:46;6.60;74.80
27266;DHT22;14766;51.380;13.762;2022-12-07T16:50:14;6.50;74.80
27266;DHT22;14766;51.380;13.762;2022-12-07T16:52:41;6.60;74.70
27266;DHT22;14766;51.380;13.762;2022-12-07T16:55:08;6.60;74.60
27266;DHT22;14766;51.380;13.762;2022-12-07T16:57:35;6.60;74.30
27266;DHT22;14766;51.380;13.762;2022-12-07T17:00:03;6.60;74.10
27266;DHT22;14766;51.380;13.762;2022-12-07T17:02:31;6.50;74.10
27266;DHT22;14766;51.380;13.762;2022-12-07T17:04:59;6.50;74.20
27266;DHT22;14766;51.380;13.762;2022-12-07T17:07:28;6.50;74.20
27266;DHT22;14766;51.380;13.762;2022-12-07T17:09:55;6.50;74.30
27266;DHT22;14766;51.380;13.762;2022-12-07T17:12:22;6.50;74.40
27266;DHT22;14766;51.380;13.762;2022-12-07T17:14:49;6.50;74.50
27266;DHT22;14766;51.380;13.762;2022-12-07T17:17:34;6.60;74.50
27266;DHT22;14766;51.380;13.762;2022-12-07T17:20:02;6.60;74.40
27266;DHT22;14766;51.380;13.762;2022-12-07T17:22:30;6.60;74.50
27266;DHT22;14766;51.380;13.762;2022-12-07T17:24:57;6.50;74.40
27266;DHT22;14766;51.380;13.762;2022-12-07T17:27:24;6.50;74.50
27266;DHT22;14766;51.380;13.762;2022-12-07T17:29:51;6.50;74.50
27266;DHT22;14766;51.380;13.762;2022-12-07T17:32:19;6.50;74.50
27266;DHT22;14766;51.380;13.762;2022-12-07T17:34:46;6.50;74.50
27266;DHT22;14766;51.380;13.762;2022-12-07T17:37:14;6.50;74.60
27266;DHT22;14766;51.380;13.762;2022-12-07T17:39:41;6.50;74.60
27266;DHT22;14766;51.380;13.762;2022-12-07T17:42:08;6.50;74.60
27266;DHT22;14766;51.380;13.762;2022-12-07T17:44:54;6.50;74.60
27266;DHT22;14766;51.380;13.762;2022-12-07T17:47:21;6.50;74.60
27266;DHT22;14766;51.380;13.762;2022-12-07T17:49:49;6.50;74.60
27266;DHT22;14766;51.380;13.762;2022-12-07T17:52:16;6.50;74.70
27266;DHT22;14766;51.380;13.762;2022-12-07T17:55:03;6.50;74.70
27266;DHT22;14766;51.380;13.762;2022-12-07T17:57:31;6.50;74.90
27266;DHT22;14766;51.380;13.762;2022-12-07T17:59:58;6.40;74.80
27266;DHT22;14766;51.380;13.762;2022-12-07T18:02:25;6.40;74.80
27266;DHT22;14766;51.380;13.762;2022-12-07T18:04:52;6.40;74.80
27266;DHT22;14766;51.380;13.762;2022-12-07T18:07:20;6.40;74.80
27266;DHT22;14766;51.380;13.762;2022-12-07T18:09:47;6.40;74.80